Time;durP1;ratioP1;P1;durP2;ratioP2;P2;SDS_P1;SDS_P2;PMS_P1;PMS_P2;Temp;Humidity;BMP_temperature;BMP_pressure;BME280_temperature;BME280_humidity;BME280_pressure;Samples;Min_cycle;Max_cycle;Signal;HPM_P1;HPM_P2
2022/08/06 00:01:51;;;;;;;3.57;1.93;;;13.60;99.90;;;;;;4996294;28;20192;-70
2022/08/06 00:04:18;;;;;;;2.63;1.70;;;13.60;99.90;;;;;;4996358;28;20596;-68
2022/08/06 00:06:44;;;;;;;2.20;1.20;;;13.50;99.90;;;;;;5011462;28;20201;-69
2022/08/06 00:09:11;;;;;;;3.23;1.73;;;13.50;99.90;;;;;;4996886;28;20165;-69
2022/08/06 00:11:38;;;;;;;5.80;1.97;;;13.50;99.90;;;;;;5002455;28;20170;-70
2022/08/06 00:14:04;;;;;;;4.90;2.00;;;13.50;99.90;;;;;;5002409;28;20453;-70
2022/08/06 00:16:30;;;;;;;2.83;1.67;;;13.30;99.90;;;;;;5002477;28;20243;-71
2022/08/06 00:18:56;;;;;;;4.93;1.13;;;13.40;99.90;;;;;;5002655;28;20192;-69
2022/08/06 00:21:22;;;;;;;2.87;1.60;;;13.30;99.90;;;;;;5002686;28;20445;-70
2022/08/06 00:23:47;;;;;;;7.57;2.30;;;13.30;99.90;;;;;;5002572;28;20177;-71
2022/08/06 00:26:13;;;;;;;3.60;1.60;;;13.20;99.90;;;;;;5002816;28;20170;-68
2022/08/06 00:28:39;;;;;;;4.40;1.67;;;13.10;99.90;;;;;;5002207;28;20465;-70
2022/08/06 00:31:07;;;;;;;1.33;1.00;;;13.10;99.90;;;;;;5002680;28;20207;-70
2022/08/06 00:33:33;;;;;;;1.80;0.93;;;13.00;99.90;;;;;;5002473;28;20162;-68
2022/08/06 00:35:59;;;;;;;1.50;1.00;;;13.00;99.90;;;;;;5002686;28;20185;-69
2022/08/06 00:38:25;;;;;;;3.60;1.00;;;12.90;99.90;;;;;;5002687;28;20161;-69
2022/08/06 00:40:52;;;;;;;2.13;1.27;;;12.90;99.90;;;;;;5002538;28;20176;-69
2022/08/06 00:43:17;;;;;;;1.70;1.20;;;12.90;99.90;;;;;;5002234;28;20300;-69
2022/08/06 00:45:43;;;;;;;6.63;2.17;;;12.80;99.90;;;;;;5002554;28;20227;-68
2022/08/06 00:48:10;;;;;;;2.07;1.30;;;12.80;99.90;;;;;;5002564;28;20170;-70
2022/08/06 00:50:36;;;;;;;6.27;2.00;;;12.80;99.90;;;;;;5002454;28;20169;-70
2022/08/06 00:53:03;;;;;;;4.67;0.83;;;12.80;99.90;;;;;;5002420;28;20177;-70
2022/08/06 00:55:30;;;;;;;1.97;1.57;;;12.70;99.90;;;;;;5002548;28;20173;-70
2022/08/06 00:57:56;;;;;;;1.90;1.70;;;12.70;99.90;;;;;;5019621;28;20267;-68
2022/08/06 01:00:22;;;;;;;3.07;1.30;;;12.60;99.90;;;;;;5005519;28;20166;-69
2022/08/06 01:02:49;;;;;;;3.73;2.07;;;12.60;99.90;;;;;;5003765;28;20198;-67
2022/08/06 01:05:15;;;;;;;1.57;1.07;;;12.60;99.90;;;;;;5002320;28;20173;-69
2022/08/06 01:07:40;;;;;;;6.83;1.10;;;12.50;99.90;;;;;;5002137;28;20169;-69
2022/08/06 01:10:06;;;;;;;1.47;0.97;;;12.40;99.90;;;;;;5002384;28;20170;-69
2022/08/06 01:12:32;;;;;;;1.07;1.00;;;12.30;99.90;;;;;;5001978;28;20170;-72
2022/08/06 01:14:58;;;;;;;4.17;1.30;;;12.30;99.90;;;;;;5002033;28;20464;-67
2022/08/06 01:17:28;;;;;;;1.37;1.20;;;12.20;99.90;;;;;;5002065;28;20213;-68
2022/08/06 01:20:03;;;;;;;1.30;0.80;;;12.20;99.90;;;;;;5002226;28;20170;-67
2022/08/06 01:22:46;;;;;;;3.63;1.73;;;12.10;99.90;;;;;;4999586;28;20201;-69
2022/08/06 01:25:36;;;;;;;2.30;1.00;;;11.90;99.90;;;;;;4998933;28;20248;-66
2022/08/06 01:28:08;;;;;;;2.70;0.90;;;11.80;99.90;;;;;;4999041;28;20159;-69
2022/08/06 01:30:44;;;;;;;1.73;1.20;;;11.50;99.90;;;;;;4999006;28;20180;-68
2022/08/06 01:33:16;;;;;;;2.73;1.63;;;11.20;99.90;;;;;;4998887;28;20201;-69
2022/08/06 01:35:47;;;;;;;2.97;1.73;;;10.80;99.90;;;;;;4998956;28;20171;-68
2022/08/06 01:38:23;;;;;;;1.37;1.20;;;10.60;99.90;;;;;;4998857;28;20173;-69
2022/08/06 01:40:52;;;;;;;2.53;1.30;;;9.20;99.90;;;;;;4998495;28;20170;-70
2022/08/06 01:43:19;;;;;;;1.50;1.40;;;8.70;99.90;;;;;;4998675;28;20201;-69
2022/08/06 01:45:46;;;;;;;8.40;2.27;;;11.30;99.90;;;;;;4998806;28;20512;-67
2022/08/06 01:48:19;;;;;;;4.23;1.60;;;11.20;99.90;;;;;;4998750;28;20184;-68
2022/08/06 01:50:48;;;;;;;1.17;1.07;;;10.90;99.90;;;;;;4998582;28;20168;-69
2022/08/06 01:53:18;;;;;;;3.07;1.43;;;10.40;99.90;;;;;;4998633;28;20170;-69
2022/08/06 01:55:48;;;;;;;1.87;1.00;;;9.20;99.90;;;;;;4998277;28;20188;-69
2022/08/06 01:58:18;;;;;;;9.23;1.30;;;12.20;99.90;;;;;;4998574;28;20170;-69
2022/08/06 02:00:47;;;;;;;2.57;1.23;;;12.10;99.90;;;;;;4998493;28;20251;-70
2022/08/06 02:03:42;;;;;;;8.80;1.83;;;12.10;99.90;;;;;;4998317;28;20233;-69
2022/08/06 02:06:11;;;;;;;1.23;0.87;;;12.00;99.90;;;;;;4997486;28;20217;-69
2022/08/06 02:08:38;;;;;;;2.80;1.33;;;12.00;99.90;;;;;;4998023;28;20590;-68
2022/08/06 02:11:07;;;;;;;2.60;1.37;;;11.90;99.90;;;;;;5013479;28;20257;-68
2022/08/06 02:13:35;;;;;;;3.60;1.27;;;11.80;99.90;;;;;;4998067;28;20578;-68
2022/08/06 02:16:05;;;;;;;2.43;1.13;;;11.70;99.90;;;;;;4998084;28;20684;-70
2022/08/06 02:18:37;;;;;;;3.13;1.27;;;11.60;99.90;;;;;;4997918;28;20627;-67
2022/08/06 02:21:08;;;;;;;2.87;1.10;;;11.60;99.90;;;;;;4998059;28;20170;-71
2022/08/06 02:23:36;;;;;;;1.60;1.30;;;11.40;99.90;;;;;;4997639;28;20198;-68
2022/08/06 02:26:04;;;;;;;1.20;1.10;;;11.00;99.90;;;;;;4997873;28;20443;-68
2022/08/06 02:28:31;;;;;;;1.67;1.57;;;9.80;99.90;;;;;;4997907;28;20169;-70
2022/08/06 02:30:57;;;;;;;5.67;1.83;;;12.00;99.90;;;;;;5013057;28;20448;-68
2022/08/06 02:33:24;;;;;;;4.53;1.23;;;12.10;99.90;;;;;;5012591;28;20518;-70
2022/08/06 02:35:52;;;;;;;2.50;1.43;;;12.10;99.90;;;;;;4997739;28;20167;-68
2022/08/06 02:38:43;;;;;;;3.40;1.80;;;12.00;99.90;;;;;;4997400;28;20177;-69
2022/08/06 02:41:21;;;;;;;1.97;1.10;;;12.00;99.90;;;;;;4997651;28;20513;-67
2022/08/06 02:43:57;;;;;;;6.70;1.50;;;12.00;99.90;;;;;;4997472;28;20174;-67
2022/08/06 02:46:38;;;;;;;2.30;1.43;;;11.90;99.90;;;;;;4997432;28;20565;-70
2022/08/06 02:49:32;;;;;;;3.87;1.57;;;11.90;99.90;;;;;;4997562;28;20244;-72
2022/08/06 02:52:06;;;;;;;2.40;1.00;;;12.00;99.90;;;;;;4996643;28;20509;-70
2022/08/06 02:54:38;;;;;;;2.77;1.27;;;11.90;99.90;;;;;;4997265;28;20212;-69
2022/08/06 02:57:08;;;;;;;0.93;0.93;;;11.90;99.90;;;;;;4997280;28;20177;-69
2022/08/06 02:59:42;;;;;;;3.83;1.77;;;11.80;99.90;;;;;;4997431;28;20166;-69
2022/08/06 03:02:10;;;;;;;2.33;1.20;;;11.70;99.90;;;;;;4997131;28;20271;-68
2022/08/06 03:04:40;;;;;;;4.77;1.30;;;11.70;99.90;;;;;;4997268;28;20162;-68
2022/08/06 03:07:08;;;;;;;1.13;1.10;;;11.60;99.90;;;;;;4996716;28;20170;-69
2022/08/06 03:09:35;;;;;;;4.20;1.57;;;11.60;99.90;;;;;;4997236;28;20169;-70
2022/08/06 03:12:02;;;;;;;3.57;1.13;;;11.50;99.90;;;;;;4996009;28;20224;-68
2022/08/06 03:14:32;;;;;;;2.93;1.13;;;11.40;99.90;;;;;;4997003;28;20586;-70
2022/08/06 03:16:59;;;;;;;1.10;1.00;;;11.40;99.90;;;;;;4996788;28;20182;-68
2022/08/06 03:19:27;;;;;;;2.60;1.43;;;11.30;99.90;;;;;;4997142;28;20522;-71
2022/08/06 03:21:54;;;;;;;5.20;1.27;;;11.20;99.90;;;;;;4996444;28;20200;-68
2022/08/06 03:24:22;;;;;;;1.03;0.97;;;11.10;99.90;;;;;;4995945;28;20257;-69
2022/08/06 03:26:50;;;;;;;1.87;1.50;;;10.60;99.90;;;;;;4996971;28;20177;-70
2022/08/06 03:29:17;;;;;;;5.17;1.37;;;-27.50;99.90;;;;;;5012220;28;20194;-70
2022/08/06 03:31:43;;;;;;;1.43;1.33;;;-27.10;99.90;;;;;;4996614;28;20531;-67
2022/08/06 03:34:10;;;;;;;1.23;1.17;;;-26.00;99.90;;;;;;4996685;28;20166;-68
2022/08/06 03:36:37;;;;;;;2.77;1.47;;;-26.00;99.90;;;;;;4996323;28;20174;-68
2022/08/06 03:39:06;;;;;;;3.47;1.80;;;-23.00;99.90;;;;;;4996597;28;20166;-68
2022/08/06 03:41:36;;;;;;;2.63;1.07;;;-24.40;99.90;;;;;;4996617;28;20166;-69
2022/08/06 03:44:03;;;;;;;6.23;1.60;;;-23.90;99.90;;;;;;4995921;28;20581;-69
2022/08/06 03:46:52;;;;;;;1.93;1.17;;;-22.60;99.90;;;;;;4996138;28;20192;-71
2022/08/06 03:49:37;;;;;;;2.43;1.10;;;-21.20;99.90;;;;;;4996595;28;20185;-68
2022/08/06 03:52:05;;;;;;;1.80;1.17;;;-21.60;99.90;;;;;;4996256;28;20166;-67
2022/08/06 03:54:38;;;;;;;2.33;1.03;;;-22.90;99.90;;;;;;4996550;28;20170;-68
2022/08/06 03:57:14;;;;;;;2.17;1.00;;;-20.70;99.90;;;;;;4996321;28;20277;-70
2022/08/06 03:59:43;;;;;;;1.37;1.03;;;-22.50;99.90;;;;;;4996356;28;20177;-68
2022/08/06 04:02:11;;;;;;;1.43;1.33;;;-21.30;99.90;;;;;;4996214;28;20201;-71
2022/08/06 04:04:37;;;;;;;2.93;1.57;;;-19.30;99.90;;;;;;5011422;28;20184;-68
2022/08/06 04:07:04;;;;;;;5.53;1.50;;;-21.60;99.90;;;;;;4996275;28;20249;-69
2022/08/06 04:09:32;;;;;;;2.97;1.33;;;-21.90;99.90;;;;;;4996343;28;20201;-71
2022/08/06 04:11:59;;;;;;;2.60;1.37;;;-22.10;99.90;;;;;;4996279;28;20200;-72
2022/08/06 04:14:25;;;;;;;3.40;1.57;;;-22.50;99.90;;;;;;4996220;28;20176;-70
2022/08/06 04:16:53;;;;;;;6.93;2.00;;;-20.10;99.90;;;;;;4996098;28;20208;-71
2022/08/06 04:19:20;;;;;;;1.73;1.20;;;-15.00;99.90;;;;;;4996008;28;20704;-71
2022/08/06 04:21:46;;;;;;;3.00;2.37;;;-19.80;99.90;;;;;;4996048;28;20625;-70
2022/08/06 04:24:13;;;;;;;2.23;1.70;;;-21.00;99.90;;;;;;4996186;28;20170;-70
2022/08/06 04:26:42;;;;;;;3.77;1.37;;;-24.20;99.90;;;;;;4996148;28;20185;-71
2022/08/06 04:29:11;;;;;;;6.17;2.17;;;-22.40;99.90;;;;;;4996091;28;20314;-70
2022/08/06 04:31:38;;;;;;;3.13;1.53;;;-21.30;99.90;;;;;;4996175;28;20260;-71
2022/08/06 04:34:04;;;;;;;7.20;1.70;;;-25.70;99.90;;;;;;5010969;28;20174;-72
2022/08/06 04:36:30;;;;;;;3.87;1.77;;;-24.10;99.90;;;;;;4996056;28;20170;-69
2022/08/06 04:38:57;;;;;;;4.77;1.70;;;-24.70;99.90;;;;;;4995916;28;20582;-70
2022/08/06 04:41:23;;;;;;;1.77;0.93;;;-27.70;99.90;;;;;;4996005;28;20205;-72
2022/08/06 04:43:49;;;;;;;2.93;1.30;;;-23.60;99.90;;;;;;4995757;28;20605;-70
2022/08/06 04:46:15;;;;;;;7.27;1.97;;;-22.90;99.90;;;;;;4996249;28;20178;-69
2022/08/06 04:48:41;;;;;;;1.73;1.60;;;-22.80;99.90;;;;;;4995654;28;20454;-71
2022/08/06 04:51:07;;;;;;;2.53;1.53;;;-21.70;99.90;;;;;;4995955;28;20174;-70
2022/08/06 04:53:40;;;;;;;4.73;1.73;;;-21.80;99.90;;;;;;4995704;28;20174;-69
2022/08/06 04:56:07;;;;;;;3.60;1.77;;;-20.40;99.90;;;;;;4996867;28;20197;-68
2022/08/06 04:58:34;;;;;;;5.63;2.47;;;-19.60;99.90;;;;;;4999522;28;20231;-70
2022/08/06 05:01:00;;;;;;;5.50;1.70;;;-22.40;99.90;;;;;;4999535;28;20242;-70
2022/08/06 05:03:26;;;;;;;7.20;2.27;;;-22.70;99.90;;;;;;5014324;28;20202;-69
2022/08/06 05:05:59;;;;;;;6.07;1.87;;;-19.80;99.90;;;;;;4999390;28;20217;-72
2022/08/06 05:08:28;;;;;;;1.97;1.53;;;-20.30;99.90;;;;;;5014614;28;20178;-70
2022/08/06 05:11:18;;;;;;;16.13;3.70;;;-19.30;99.90;;;;;;4999415;28;20469;-71
2022/08/06 05:13:46;;;;;;;4.70;1.30;;;-19.50;99.90;;;;;;4999311;28;20475;-71
2022/08/06 05:16:14;;;;;;;3.33;1.30;;;-20.40;99.90;;;;;;5014657;28;20605;-71
2022/08/06 05:18:44;;;;;;;4.00;1.73;;;-20.30;99.90;;;;;;4999156;28;20186;-68
2022/08/06 05:21:14;;;;;;;2.67;1.47;;;-20.00;99.90;;;;;;4999248;28;20170;-71
2022/08/06 05:23:54;;;;;;;5.13;1.40;;;-20.10;99.90;;;;;;5001346;28;20198;-70
2022/08/06 05:26:21;;;;;;;3.50;1.80;;;-19.80;99.90;;;;;;5002185;28;20210;-69
2022/08/06 05:28:47;;;;;;;6.03;1.80;;;-21.60;99.90;;;;;;5000328;28;20174;-72
2022/08/06 05:31:14;;;;;;;3.80;1.57;;;-19.80;99.90;;;;;;4999105;28;20197;-69
2022/08/06 05:33:40;;;;;;;3.23;1.53;;;-19.50;99.90;;;;;;5014097;28;20631;-70
2022/08/06 05:36:11;;;;;;;4.33;1.93;;;-20.20;99.90;;;;;;4998956;28;20171;-73
2022/08/06 05:38:38;;;;;;;5.13;1.90;;;-21.50;99.90;;;;;;4999055;28;20166;-71
2022/08/06 05:41:09;;;;;;;3.40;2.03;;;-20.20;99.90;;;;;;5014279;28;20181;-71
2022/08/06 05:43:37;;;;;;;2.73;1.83;;;-20.10;99.90;;;;;;4998586;28;20209;-73
2022/08/06 05:46:09;;;;;;;1.67;1.57;;;-21.80;99.90;;;;;;4998362;28;20170;-69
2022/08/06 05:48:41;;;;;;;3.20;2.37;;;-22.40;99.90;;;;;;4998696;28;20173;-68
2022/08/06 05:51:23;;;;;;;3.17;1.70;;;-24.60;99.90;;;;;;4998737;28;20162;-70
2022/08/06 05:53:53;;;;;;;4.43;1.90;;;-23.00;99.90;;;;;;4998469;28;20170;-72
2022/08/06 05:56:26;;;;;;;3.77;1.97;;;-25.20;99.90;;;;;;4998522;28;20507;-69
2022/08/06 05:58:59;;;;;;;2.93;1.57;;;-27.90;99.90;;;;;;4998392;28;20189;-70
2022/08/06 06:01:26;;;;;;;6.00;1.73;;;-30.40;99.90;;;;;;4998388;28;20166;-69
2022/08/06 06:03:56;;;;;;;10.80;2.53;;;-31.40;99.90;;;;;;4998309;28;20166;-69
2022/08/06 06:06:23;;;;;;;4.53;2.03;;;-27.90;99.90;;;;;;4998342;28;20194;-70
2022/08/06 06:08:49;;;;;;;4.20;1.53;;;-28.60;99.90;;;;;;4997474;28;20650;-70
2022/08/06 06:11:16;;;;;;;2.43;2.13;;;-25.20;99.90;;;;;;4998265;28;20174;-69
2022/08/06 06:13:43;;;;;;;5.33;1.60;;;-26.50;99.90;;;;;;4998089;28;20169;-70
2022/08/06 06:16:16;;;;;;;5.50;1.83;;;-26.40;99.90;;;;;;4997888;28;20209;-70
2022/08/06 06:18:45;;;;;;;2.40;1.60;;;-24.00;99.90;;;;;;5013425;28;20505;-69
2022/08/06 06:21:17;;;;;;;5.73;1.80;;;-25.60;99.90;;;;;;4998049;28;20178;-70
2022/08/06 06:23:55;;;;;;;2.77;1.70;;;-24.70;99.90;;;;;;4997940;28;20237;-69
2022/08/06 06:26:42;;;;;;;4.17;1.50;;;-21.60;99.90;;;;;;4998121;28;20256;-70
2022/08/06 06:29:31;;;;;;;1.40;1.30;;;-30.30;99.90;;;;;;4997951;28;20453;-73
2022/08/06 06:32:14;;;;;;;4.93;1.70;;;-23.10;99.90;;;;;;4997616;28;20240;-71
2022/08/06 06:34:44;;;;;;;3.10;1.50;;;-23.10;99.90;;;;;;5013001;28;20185;-70
2022/08/06 06:37:47;;;;;;;2.13;1.83;;;-24.70;99.90;;;;;;4997755;28;20189;-69
2022/08/06 06:40:25;;;;;;;7.67;2.10;;;-26.50;99.90;;;;;;4997618;28;20256;-71
2022/08/06 06:43:19;;;;;;;3.30;2.00;;;-28.00;99.90;;;;;;4997540;28;20205;-69
2022/08/06 06:45:44;;;;;;;5.83;2.20;;;-22.40;99.90;;;;;;4997399;28;20586;-71
2022/08/06 06:48:18;;;;;;;4.30;1.80;;;-30.20;99.90;;;;;;4997544;28;20253;-70
2022/08/06 06:50:53;;;;;;;4.03;1.47;;;-26.80;99.90;;;;;;4997506;28;20170;-70
2022/08/06 06:53:21;;;;;;;5.63;1.37;;;-27.80;99.90;;;;;;4997463;28;20264;-70
2022/08/06 06:55:53;;;;;;;3.00;1.87;;;-26.50;99.90;;;;;;4997476;28;20166;-71
2022/08/06 06:58:23;;;;;;;1.90;1.70;;;-21.40;99.90;;;;;;4997362;28;20174;-70
2022/08/06 07:00:50;;;;;;;4.07;1.30;;;-21.80;99.90;;;;;;4997039;28;20574;-69
2022/08/06 07:03:19;;;;;;;2.33;1.50;;;-24.70;99.90;;;;;;4997183;28;20202;-69
2022/08/06 07:05:47;;;;;;;4.23;1.43;;;-21.70;99.90;;;;;;4997158;28;20479;-70
2022/08/06 07:08:16;;;;;;;8.77;1.60;;;-18.20;99.90;;;;;;4997178;28;20252;-69
2022/08/06 07:10:43;;;;;;;5.90;2.07;;;-24.00;99.90;;;;;;4997101;28;20174;-70
2022/08/06 07:13:11;;;;;;;5.03;1.30;;;-26.20;99.90;;;;;;4996709;28;20178;-70
2022/08/06 07:15:40;;;;;;;4.03;1.60;;;-25.00;99.90;;;;;;4997177;28;20206;-69
2022/08/06 07:18:06;;;;;;;3.20;1.10;;;-25.00;99.90;;;;;;5012289;28;20217;-70
2022/08/06 07:20:33;;;;;;;4.17;1.30;;;-24.40;99.90;;;;;;4996848;28;20174;-69
2022/08/06 07:23:01;;;;;;;2.80;1.00;;;-23.30;99.90;;;;;;5012166;28;20218;-68
2022/08/06 07:25:28;;;;;;;2.57;1.03;;;-18.90;99.90;;;;;;4996946;28;20174;-70
2022/08/06 07:27:54;;;;;;;3.97;1.60;;;-25.20;99.90;;;;;;4996535;28;20629;-70
2022/08/06 07:30:21;;;;;;;3.60;1.30;;;-23.30;99.90;;;;;;4996839;28;20178;-70
2022/08/06 07:32:49;;;;;;;2.07;1.10;;;-15.50;99.90;;;;;;4995846;28;20632;-69
2022/08/06 07:35:19;;;;;;;2.60;1.40;;;-18.80;99.90;;;;;;4996794;28;20290;-71
2022/08/06 07:37:57;;;;;;;4.80;1.87;;;-18.10;99.90;;;;;;4996694;28;20205;-70
2022/08/06 07:40:35;;;;;;;2.60;1.00;;;-20.70;99.90;;;;;;4996652;28;20209;-70
2022/08/06 07:43:11;;;;;;;6.10;1.50;;;-20.60;99.90;;;;;;4996290;28;20605;-70
2022/08/06 07:45:37;;;;;;;3.23;1.07;;;-17.20;99.90;;;;;;4996589;28;20577;-71
2022/08/06 07:48:08;;;;;;;4.60;1.27;;;-19.30;99.90;;;;;;5011757;28;20224;-71
2022/08/06 07:50:36;;;;;;;1.83;0.90;;;-17.60;99.90;;;;;;4996530;28;20592;-70
2022/08/06 07:53:02;;;;;;;6.20;1.03;;;-14.80;99.90;;;;;;4996471;28;20178;-71
2022/08/06 07:55:28;;;;;;;1.67;0.83;;;-15.90;99.90;;;;;;4996467;28;20181;-70
2022/08/06 07:57:57;;;;;;;4.57;1.27;;;-15.50;99.90;;;;;;4996368;28;20162;-70
2022/08/06 08:00:24;;;;;;;8.10;1.87;;;-15.90;99.90;;;;;;4995540;28;20170;-70
2022/08/06 08:08:25;;;;;;;1.90;1.13;;;-15.70;99.90;;;;;;4996467;28;20181;-70
2022/08/06 08:10:52;;;;;;;2.43;0.70;;;-15.00;99.90;;;;;;4996445;28;20529;-69
2022/08/06 08:13:19;;;;;;;4.37;1.07;;;-14.40;99.90;;;;;;4995818;28;20566;-71
2022/08/06 08:15:47;;;;;;;3.80;1.50;;;-16.30;99.90;;;;;;4996175;28;20600;-70
2022/08/06 08:18:13;;;;;;;3.77;0.90;;;-13.70;99.90;;;;;;4996045;28;20205;-68
2022/08/06 08:20:41;;;;;;;5.80;1.20;;;-15.40;99.90;;;;;;4996373;28;20178;-70
2022/08/06 08:23:09;;;;;;;6.10;2.40;;;-16.50;99.90;;;;;;4995992;28;20241;-69
2022/08/06 08:25:35;;;;;;;11.97;2.03;;;-14.10;99.90;;;;;;5011350;28;20185;-68
2022/08/06 08:28:01;;;;;;;0.53;0.47;;;-11.90;99.90;;;;;;4996144;28;20169;-67
2022/08/06 08:30:27;;;;;;;2.63;0.93;;;-10.10;99.90;;;;;;4996103;28;20892;-70
2022/08/06 08:32:52;;;;;;;3.83;0.90;;;-12.00;99.90;;;;;;5000175;28;20196;-70
2022/08/06 08:35:18;;;;;;;3.77;1.03;;;-11.60;99.90;;;;;;5000195;28;20249;-70
2022/08/06 08:37:44;;;;;;;3.27;1.33;;;-11.80;99.90;;;;;;5000006;28;20188;-68
2022/08/06 08:40:10;;;;;;;4.97;1.27;;;-11.60;99.90;;;;;;4999743;28;20201;-70
2022/08/06 08:42:41;;;;;;;5.83;0.90;;;-9.50;99.90;;;;;;4999825;28;20605;-71
2022/08/06 08:45:08;;;;;;;4.57;0.97;;;-14.20;99.30;;;;;;4999960;28;20182;-70
2022/08/06 08:47:37;;;;;;;4.83;1.10;;;-10.80;99.90;;;;;;4999902;28;20185;-72
2022/08/06 08:50:03;;;;;;;3.07;1.13;;;-10.30;99.90;;;;;;4999888;28;20162;-69
2022/08/06 08:52:33;;;;;;;2.70;0.93;;;-9.90;99.90;;;;;;4999580;28;20233;-70
2022/08/06 08:55:03;;;;;;;3.00;1.00;;;-9.90;99.90;;;;;;4999492;28;20194;-71
2022/08/06 08:57:30;;;;;;;1.00;0.70;;;-9.90;99.60;;;;;;4998852;28;20577;-70
2022/08/06 08:59:56;;;;;;;5.73;1.60;;;-9.20;99.80;;;;;;4999590;28;20294;-70
2022/08/06 09:02:24;;;;;;;2.23;0.57;;;-10.10;99.30;;;;;;4999624;28;20509;-69
2022/08/06 09:04:51;;;;;;;2.00;0.80;;;-6.10;99.90;;;;;;5014767;28;20181;-71
2022/08/06 09:07:18;;;;;;;1.80;0.80;;;16.50;99.90;;;;;;4999672;28;20170;-70
2022/08/06 09:09:46;;;;;;;1.23;1.13;;;18.00;99.90;;;;;;4999216;28;20628;-69
2022/08/06 09:12:12;;;;;;;2.80;0.93;;;17.70;99.90;;;;;;4999530;28;20177;-70
2022/08/06 09:14:38;;;;;;;1.57;0.70;;;-2.60;99.90;;;;;;4999348;28;20194;-71
2022/08/06 09:17:05;;;;;;;4.13;1.70;;;-6.30;98.60;;;;;;4999189;28;20272;-70
2022/08/06 09:19:32;;;;;;;8.80;1.73;;;-9.50;97.20;;;;;;4999137;28;20202;-67
2022/08/06 09:21:59;;;;;;;5.23;0.90;;;-5.90;97.40;;;;;;5014546;28;20209;-69
2022/08/06 09:24:26;;;;;;;0.90;0.90;;;-7.90;96.80;;;;;;4998785;28;20216;-69
2022/08/06 09:27:09;;;;;;;7.80;1.70;;;-6.90;97.00;;;;;;4999191;28;20209;-69
2022/08/06 09:29:54;;;;;;;1.90;0.73;;;-10.00;95.90;;;;;;5014210;28;20181;-69
2022/08/06 09:32:45;;;;;;;2.03;0.50;;;-9.50;95.60;;;;;;4999578;28;20531;-69
2022/08/06 09:35:24;;;;;;;2.93;0.70;;;-8.30;94.40;;;;;;4999131;28;20178;-70
2022/08/06 09:38:01;;;;;;;5.23;0.80;;;-8.10;94.70;;;;;;4999184;28;20205;-69
2022/08/06 09:40:26;;;;;;;0.77;0.50;;;-6.00;95.10;;;;;;4998804;28;20178;-69
2022/08/06 09:42:52;;;;;;;1.60;0.57;;;-12.50;92.70;;;;;;4997475;28;20198;-70
2022/08/06 09:45:21;;;;;;;2.17;1.30;;;-9.50;92.50;;;;;;4999137;28;20174;-69
2022/08/06 09:47:48;;;;;;;1.97;0.67;;;-10.90;93.10;;;;;;4998807;28;20209;-69
2022/08/06 09:50:25;;;;;;;2.80;1.10;;;-8.50;92.90;;;;;;5014009;28;20174;-69
2022/08/06 09:53:11;;;;;;;1.27;0.80;;;-11.40;92.90;;;;;;4998554;28;20200;-70
2022/08/06 09:55:38;;;;;;;3.30;0.60;;;-8.40;93.80;;;;;;4998449;28;20177;-69
2022/08/06 09:58:04;;;;;;;6.23;0.90;;;-7.80;93.30;;;;;;4998863;28;20206;-69
2022/08/06 10:00:33;;;;;;;2.00;1.07;;;-10.00;91.50;;;;;;4998467;28;20175;-70
2022/08/06 10:03:04;;;;;;;2.93;0.70;;;-10.00;91.10;;;;;;5013788;28;20704;-70
2022/08/06 10:05:31;;;;;;;2.37;0.93;;;-6.20;92.70;;;;;;4998271;28;20586;-70
2022/08/06 10:08:09;;;;;;;2.13;0.73;;;-6.20;91.60;;;;;;4998340;28;20178;-69
2022/08/06 10:10:53;;;;;;;2.87;1.60;;;-5.10;92.70;;;;;;5013851;28;20169;-69
2022/08/06 10:13:26;;;;;;;3.20;0.67;;;-7.10;92.50;;;;;;4998650;28;20185;-71
2022/08/06 10:15:55;;;;;;;1.10;0.80;;;-9.00;91.70;;;;;;4998404;28;20272;-71
2022/08/06 10:18:43;;;;;;;2.97;0.90;;;-11.00;91.20;;;;;;4998084;28;20197;-71
2022/08/06 10:21:17;;;;;;;5.13;0.80;;;-6.40;92.40;;;;;;4998153;28;20170;-71
2022/08/06 10:23:49;;;;;;;3.00;1.23;;;-6.90;91.30;;;;;;4997913;28;20208;-71
2022/08/06 10:26:18;;;;;;;2.10;0.67;;;-9.10;91.20;;;;;;4998036;28;20600;-70
2022/08/06 10:28:48;;;;;;;4.03;1.00;;;-8.60;91.50;;;;;;5013470;28;20174;-72
2022/08/06 10:31:15;;;;;;;4.27;1.30;;;-9.50;87.80;;;;;;4997854;28;20166;-69
2022/08/06 10:33:50;;;;;;;3.03;0.93;;;-6.60;90.20;;;;;;4997838;28;20182;-71
2022/08/06 10:36:22;;;;;;;1.57;0.93;;;-7.50;89.20;;;;;;4997597;28;20205;-71
2022/08/06 10:38:50;;;;;;;2.17;0.97;;;-3.10;91.40;;;;;;5013248;28;20586;-70
2022/08/06 10:41:17;;;;;;;0.87;0.87;;;-7.40;90.40;;;;;;5012940;28;20182;-69
2022/08/06 10:43:44;;;;;;;2.87;1.67;;;-10.50;89.00;;;;;;4997502;28;20202;-71
2022/08/06 10:46:17;;;;;;;1.70;1.37;;;-13.50;83.20;;;;;;4997605;28;20170;-70
2022/08/06 10:48:45;;;;;;;4.80;1.67;;;-18.30;80.70;;;;;;4997576;28;20193;-72
2022/08/06 10:51:12;;;;;;;1.00;0.80;;;-19.50;79.80;;;;;;4997101;28;20181;-70
2022/08/06 10:53:41;;;;;;;5.83;1.40;;;-18.00;79.50;;;;;;4997219;28;20184;-70
2022/08/06 10:56:09;;;;;;;2.53;0.80;;;18.00;95.70;;;;;;4997682;28;20484;-68
2022/08/06 10:58:36;;;;;;;1.63;0.93;;;21.60;96.70;;;;;;4997313;28;20170;-71
2022/08/06 11:01:06;;;;;;;3.33;1.40;;;21.70;95.50;;;;;;4997322;28;20257;-71
2022/08/06 11:03:50;;;;;;;2.27;0.93;;;21.70;95.70;;;;;;4997260;28;20225;-69
2022/08/06 11:06:19;;;;;;;1.17;1.07;;;21.50;94.70;;;;;;4997003;28;20253;-73
2022/08/06 11:08:57;;;;;;;3.20;0.53;;;19.20;93.70;;;;;;4997211;28;20257;-68
2022/08/06 11:11:31;;;;;;;0.70;0.60;;;-25.50;68.70;;;;;;5012321;28;20174;-69
2022/08/06 11:14:07;;;;;;;1.50;0.60;;;22.70;94.50;;;;;;4997154;28;20177;-69
2022/08/06 11:16:33;;;;;;;0.40;0.40;;;22.70;92.30;;;;;;4996860;28;20213;-68
2022/08/06 11:19:00;;;;;;;3.20;0.70;;;22.80;92.60;;;;;;4996978;28;20648;-69
2022/08/06 11:21:46;;;;;;;1.13;0.53;;;22.60;92.40;;;;;;4996682;28;20173;-69
2022/08/06 11:24:14;;;;;;;0.30;0.30;;;7.60;83.80;;;;;;4997134;28;20177;-70
2022/08/06 11:26:44;;;;;;;2.07;0.83;;;23.80;92.50;;;;;;5012164;28;20185;-69
2022/08/06 11:29:12;;;;;;;1.13;0.70;;;23.90;91.60;;;;;;4997080;28;20205;-69
2022/08/06 11:31:47;;;;;;;3.90;1.63;;;23.70;90.60;;;;;;4996784;28;20184;-70
2022/08/06 11:34:15;;;;;;;2.37;0.77;;;23.10;90.00;;;;;;4997016;28;20188;-70
2022/08/06 11:36:46;;;;;;;10.93;1.37;;;22.00;88.50;;;;;;4996803;28;20640;-70
2022/08/06 11:39:13;;;;;;;1.40;0.53;;;-40.00;52.80;;;;;;4996892;28;20174;-70
2022/08/06 11:41:49;;;;;;;2.73;0.70;;;-40.00;51.00;;;;;;4996596;28;20170;-69
2022/08/06 11:44:17;;;;;;;1.17;0.70;;;-40.00;50.40;;;;;;4996969;28;20180;-69
2022/08/06 11:46:45;;;;;;;0.87;0.40;;;-40.00;48.70;;;;;;4996647;28;20213;-70
2022/08/06 11:49:20;;;;;;;4.30;1.70;;;-40.00;48.80;;;;;;4996420;28;20474;-69
2022/08/06 11:51:59;;;;;;;2.23;0.87;;;-40.00;49.50;;;;;;4996515;28;20490;-70
2022/08/06 11:54:30;;;;;;;1.03;0.43;;;-40.00;47.40;;;;;;4996675;28;20180;-69
2022/08/06 11:57:02;;;;;;;0.73;0.67;;;-40.00;43.00;;;;;;4996499;28;20245;-70
2022/08/06 11:59:30;;;;;;;1.73;0.40;;;-40.00;43.50;;;;;;4996407;28;20170;-70
2022/08/06 12:01:57;;;;;;;1.00;0.73;;;-40.00;45.80;;;;;;4996303;28;20202;-69
2022/08/06 12:04:32;;;;;;;1.03;0.53;;;-40.00;43.40;;;;;;4996273;28;20525;-69
2022/08/06 12:07:27;;;;;;;3.20;0.63;;;-40.00;42.10;;;;;;4995533;28;20166;-70
2022/08/06 12:10:05;;;;;;;1.13;0.40;;;-40.00;41.60;;;;;;4996443;28;20173;-69
2022/08/06 12:12:39;;;;;;;1.43;0.80;;;-40.00;42.80;;;;;;4996173;28;20170;-69
2022/08/06 12:15:19;;;;;;;3.50;1.27;;;-40.00;40.50;;;;;;4996638;28;20174;-71
2022/08/06 12:17:54;;;;;;;2.40;0.70;;;-40.00;36.60;;;;;;5010962;28;20704;-69
2022/08/06 12:20:40;;;;;;;4.83;1.00;;;-40.00;36.40;;;;;;4996324;28;20582;-69
2022/08/06 12:23:21;;;;;;;1.83;0.70;;;-40.00;36.90;;;;;;4996115;28;20481;-69
2022/08/06 12:25:48;;;;;;;1.30;1.10;;;-40.00;33.10;;;;;;4996779;28;20162;-70
2022/08/06 12:28:17;;;;;;;0.83;0.70;;;-40.00;36.40;;;;;;5011239;28;20698;-69
2022/08/06 12:30:45;;;;;;;1.03;0.90;;;28.90;67.70;;;;;;4996084;28;20173;-68
2022/08/06 12:33:12;;;;;;;0.97;0.57;;;28.90;70.80;;;;;;5010983;28;20206;-70
2022/08/06 12:35:56;;;;;;;2.03;0.57;;;29.00;68.70;;;;;;4996138;28;20244;-70
2022/08/06 12:38:21;;;;;;;1.15;0.68;;;28.30;66.50;;;;;;4995911;28;20197;-69
2022/08/06 12:40:58;;;;;;;1.55;0.82;;;28.50;69.90;;;;;;4995983;28;20264;-70
2022/08/06 12:43:25;;;;;;;1.37;1.10;;;28.10;66.00;;;;;;4995924;28;20198;-69
2022/08/06 12:46:04;;;;;;;1.40;0.70;;;28.70;69.80;;;;;;5010956;28;20197;-69
2022/08/06 12:48:36;;;;;;;2.22;1.17;;;28.30;65.20;;;;;;4995654;28;20518;-68
2022/08/06 12:51:11;;;;;;;0.77;0.75;;;27.50;62.90;;;;;;5011243;28;20174;-70
2022/08/06 12:53:46;;;;;;;0.95;0.95;;;27.60;65.30;;;;;;4995912;28;20253;-70
2022/08/06 12:56:12;;;;;;;0.80;0.80;;;29.80;64.00;;;;;;4995970;28;20511;-69
2022/08/06 12:58:40;;;;;;;1.75;1.35;;;29.80;61.80;;;;;;4995838;28;20261;-70
2022/08/06 13:01:08;;;;;;;0.77;0.77;;;29.60;60.70;;;;;;5010776;28;20201;-69
2022/08/06 13:03:37;;;;;;;4.00;1.05;;;30.20;62.20;;;;;;4995545;28;20288;-69